Time;durP1;ratioP1;P1;durP2;ratioP2;P2;SDS_P1;SDS_P2;PMS_P1;PMS_P2;Temp;Humidity;BMP_temperature;BMP_pressure;BME280_temperature;BME280_humidity;BME280_pressure;Samples;Min_cycle;Max_cycle;Signal;HPM_P1;HPM_P2
2020/12/11 00:01:33;;;;;;;21.40;13.90;;;3.60;80.20;;;;;;5064121;28;20072;-64
2020/12/11 00:04:00;;;;;;;22.02;13.38;;;3.60;80.20;;;;;;5052975;28;20107;-65
2020/12/11 00:06:26;;;;;;;22.38;14.10;;;3.60;80.20;;;;;;5063742;28;20547;-64
2020/12/11 00:08:51;;;;;;;23.08;13.57;;;3.60;80.20;;;;;;5063980;28;20107;-64
2020/12/11 00:11:17;;;;;;;22.77;13.52;;;3.60;80.30;;;;;;5061177;28;20512;-64
2020/12/11 00:13:44;;;;;;;21.92;13.95;;;3.60;80.30;;;;;;5058404;28;20090;-64
2020/12/11 00:16:09;;;;;;;22.42;14.38;;;3.50;80.40;;;;;;5054081;28;20573;-62
2020/12/11 00:18:36;;;;;;;21.30;13.32;;;3.50;80.40;;;;;;5060331;28;20108;-64
2020/12/11 00:21:02;;;;;;;20.75;13.30;;;3.50;80.40;;;;;;5052568;28;20059;-64
2020/12/11 00:23:28;;;;;;;21.98;13.75;;;3.50;80.40;;;;;;5060813;28;20033;-65
2020/12/11 00:26:00;;;;;;;20.63;13.05;;;3.50;80.50;;;;;;5060765;28;20040;-64
2020/12/11 00:28:29;;;;;;;21.80;13.85;;;3.50;80.50;;;;;;5064043;28;20449;-64
2020/12/11 00:30:56;;;;;;;21.50;13.07;;;3.40;80.50;;;;;;5060334;28;20049;-64
2020/12/11 00:33:23;;;;;;;22.33;14.18;;;3.40;80.60;;;;;;5057223;28;20071;-63
2020/12/11 00:35:50;;;;;;;22.70;13.98;;;3.40;80.70;;;;;;5058647;28;20051;-65
2020/12/11 00:38:17;;;;;;;22.35;14.02;;;3.40;80.70;;;;;;5054116;28;20079;-65
2020/12/11 00:40:43;;;;;;;23.73;14.65;;;3.40;80.60;;;;;;5051392;28;20043;-63
2020/12/11 00:43:08;;;;;;;24.25;14.80;;;3.40;80.40;;;;;;5065735;28;20025;-64
2020/12/11 00:45:34;;;;;;;22.58;13.95;;;3.40;80.20;;;;;;5062871;28;20558;-64
2020/12/11 00:48:00;;;;;;;23.13;13.82;;;3.50;80.20;;;;;;5066257;28;20041;-63
2020/12/11 00:50:25;;;;;;;25.33;14.88;;;3.40;80.20;;;;;;5049645;28;20044;-64
2020/12/11 00:52:51;;;;;;;23.77;13.80;;;3.50;80.20;;;;;;5051072;28;20090;-64
2020/12/11 00:55:17;;;;;;;25.08;14.45;;;3.40;80.20;;;;;;5075142;28;20098;-64
2020/12/11 00:57:43;;;;;;;23.25;14.50;;;3.40;80.20;;;;;;5056481;28;20036;-65
2020/12/11 01:00:14;;;;;;;25.23;14.68;;;3.40;80.20;;;;;;5066110;28;20116;-63
2020/12/11 01:02:40;;;;;;;24.73;14.80;;;3.40;80.20;;;;;;5060908;28;20044;-65
2020/12/11 01:05:06;;;;;;;23.95;15.10;;;3.40;80.20;;;;;;5060593;28;20035;-63
2020/12/11 01:07:32;;;;;;;24.80;14.80;;;3.40;80.20;;;;;;5064652;28;20032;-64
2020/12/11 01:09:58;;;;;;;24.17;14.90;;;3.40;80.10;;;;;;5060029;28;20625;-64
2020/12/11 01:12:24;;;;;;;23.42;14.82;;;3.40;80.00;;;;;;5055039;28;20115;-64
2020/12/11 01:14:50;;;;;;;25.17;15.38;;;3.40;79.80;;;;;;5050075;28;20101;-65
2020/12/11 01:17:16;;;;;;;23.50;14.23;;;3.30;79.50;;;;;;5054290;28;20067;-64
2020/12/11 01:19:42;;;;;;;27.52;16.58;;;3.30;79.20;;;;;;5068666;28;20066;-64
2020/12/11 01:22:07;;;;;;;26.83;15.43;;;3.20;79.00;;;;;;5066115;28;20491;-64
2020/12/11 01:24:33;;;;;;;25.83;15.48;;;3.20;79.00;;;;;;5068743;28;20196;-65
2020/12/11 01:26:59;;;;;;;25.35;14.88;;;3.10;79.00;;;;;;5061970;28;20033;-64
2020/12/11 01:29:24;;;;;;;27.40;16.05;;;3.10;79.00;;;;;;5063168;28;20522;-62
2020/12/11 01:31:55;;;;;;;23.15;14.23;;;3.10;78.90;;;;;;5066479;28;20070;-64
2020/12/11 01:34:20;;;;;;;27.08;15.70;;;3.00;78.80;;;;;;5069187;28;20044;-65
2020/12/11 01:36:46;;;;;;;27.38;16.10;;;3.00;79.00;;;;;;5060562;28;20037;-64
2020/12/11 01:39:12;;;;;;;23.88;14.40;;;3.00;79.10;;;;;;5067078;28;20502;-63
2020/12/11 01:41:37;;;;;;;25.73;16.27;;;3.00;79.20;;;;;;5058775;28;20486;-64
2020/12/11 01:44:10;;;;;;;26.40;16.17;;;3.00;79.30;;;;;;5064167;28;20147;-64
2020/12/11 01:46:40;;;;;;;24.95;15.55;;;3.00;79.00;;;;;;5058185;28;20029;-64
2020/12/11 01:49:11;;;;;;;28.45;17.25;;;3.00;79.00;;;;;;5057495;28;20025;-64
2020/12/11 01:51:37;;;;;;;27.15;16.40;;;2.90;78.80;;;;;;5064139;28;20035;-64
2020/12/11 01:54:06;;;;;;;27.00;16.27;;;2.90;78.90;;;;;;5061453;28;20048;-62
2020/12/11 01:56:36;;;;;;;27.23;16.13;;;2.90;79.00;;;;;;5065559;28;20035;-63
2020/12/11 01:59:03;;;;;;;26.38;15.88;;;2.90;79.10;;;;;;5067611;28;20058;-64
2020/12/11 02:01:35;;;;;;;27.40;16.10;;;2.90;79.20;;;;;;5059049;28;20033;-63
2020/12/11 02:04:04;;;;;;;27.40;16.90;;;2.90;79.20;;;;;;5060703;28;20028;-64
2020/12/11 02:06:30;;;;;;;27.38;16.50;;;2.90;80.00;;;;;;5066868;28;20025;-64
2020/12/11 02:08:56;;;;;;;26.63;16.33;;;2.90;79.20;;;;;;5077360;28;20025;-64
2020/12/11 02:11:23;;;;;;;28.02;16.27;;;2.90;79.20;;;;;;5061272;28;20498;-64
2020/12/11 02:13:50;;;;;;;26.08;15.52;;;2.90;79.10;;;;;;5069079;28;20184;-64
2020/12/11 02:16:21;;;;;;;28.70;17.05;;;2.90;79.10;;;;;;5060391;28;20035;-64
2020/12/11 02:18:47;;;;;;;26.48;15.95;;;2.90;79.10;;;;;;5062437;28;20029;-64
2020/12/11 02:21:13;;;;;;;28.20;16.95;;;2.90;79.20;;;;;;5057279;28;20063;-64
2020/12/11 02:23:38;;;;;;;28.77;16.90;;;2.90;79.20;;;;;;5062336;28;20734;-64
2020/12/11 02:26:04;;;;;;;28.27;16.33;;;2.90;79.20;;;;;;5065772;28;20530;-63
2020/12/11 02:28:31;;;;;;;28.48;16.65;;;2.90;79.00;;;;;;5058314;28;20039;-64
2020/12/11 02:30:57;;;;;;;29.52;17.35;;;2.90;79.10;;;;;;5057632;28;20115;-64
2020/12/11 02:33:23;;;;;;;27.63;16.60;;;2.90;79.10;;;;;;5064706;28;20150;-64
2020/12/11 02:35:49;;;;;;;29.58;17.27;;;2.80;79.00;;;;;;5062018;28;20044;-60
2020/12/11 02:38:15;;;;;;;27.75;17.20;;;2.80;79.00;;;;;;5061535;28;20029;-63
2020/12/11 02:40:55;;;;;;;29.88;16.85;;;2.80;79.10;;;;;;5066038;28;20024;-63
2020/12/11 02:43:21;;;;;;;28.35;17.08;;;2.80;79.20;;;;;;5064277;28;20028;-63
2020/12/11 02:45:51;;;;;;;30.98;17.70;;;2.80;79.20;;;;;;5083911;28;20103;-64
2020/12/11 02:48:18;;;;;;;29.05;17.15;;;2.70;79.10;;;;;;5059485;28;22025;-63
2020/12/11 02:50:44;;;;;;;30.65;17.10;;;2.70;79.20;;;;;;5060837;28;20090;-62
2020/12/11 02:53:10;;;;;;;31.88;17.63;;;2.70;79.20;;;;;;5062551;28;20068;-64
2020/12/11 02:55:36;;;;;;;29.35;16.55;;;2.70;79.30;;;;;;5061875;28;20113;-62
2020/12/11 02:58:03;;;;;;;32.97;17.67;;;2.70;79.30;;;;;;5053347;28;20120;-64
2020/12/11 03:00:29;;;;;;;29.08;16.85;;;2.60;79.40;;;;;;5054247;28;20079;-64
2020/12/11 03:02:54;;;;;;;31.55;17.25;;;2.60;79.50;;;;;;5062981;28;20056;-64
2020/12/11 03:05:20;;;;;;;28.48;15.93;;;2.60;79.50;;;;;;5060055;28;20434;-64
2020/12/11 03:07:45;;;;;;;31.80;17.00;;;2.60;79.50;;;;;;5057068;28;20615;-64
2020/12/11 03:10:11;;;;;;;29.25;16.60;;;2.60;79.50;;;;;;5067863;28;20404;-64
2020/12/11 03:12:37;;;;;;;32.60;18.42;;;2.50;79.50;;;;;;5056084;28;20028;-64
2020/12/11 03:15:04;;;;;;;29.67;16.77;;;2.50;79.50;;;;;;5064049;28;20040;-64
2020/12/11 03:17:29;;;;;;;29.70;17.08;;;2.50;79.40;;;;;;5067447;28;20024;-63
2020/12/11 03:19:55;;;;;;;30.33;16.75;;;2.50;79.50;;;;;;5056635;28;20403;-64
2020/12/11 03:22:20;;;;;;;30.42;17.17;;;2.40;79.60;;;;;;5062089;28;20039;-64
2020/12/11 03:24:46;;;;;;;28.48;15.98;;;2.40;79.70;;;;;;5063466;28;20047;-64
2020/12/11 03:27:12;;;;;;;30.20;17.23;;;2.40;79.80;;;;;;5063911;28;20048;-64
2020/12/11 03:29:37;;;;;;;27.30;16.00;;;2.50;79.90;;;;;;5084145;28;20036;-64
2020/12/11 03:32:04;;;;;;;28.75;16.55;;;2.40;79.70;;;;;;5067137;28;20050;-64
2020/12/11 03:34:29;;;;;;;30.10;17.30;;;2.40;79.70;;;;;;5063505;28;20153;-64
2020/12/11 03:36:55;;;;;;;29.13;17.08;;;2.40;79.60;;;;;;5064444;28;20515;-64
2020/12/11 03:39:21;;;;;;;29.90;17.23;;;2.40;79.60;;;;;;5059568;28;20024;-64
2020/12/11 03:41:53;;;;;;;29.27;17.05;;;2.40;79.70;;;;;;5056883;28;20040;-63
2020/12/11 03:44:19;;;;;;;28.25;16.45;;;2.40;79.50;;;;;;5060949;28;20652;-64
2020/12/11 03:46:45;;;;;;;28.95;16.73;;;2.30;79.60;;;;;;5065686;28;20271;-64
2020/12/11 03:49:11;;;;;;;31.30;17.05;;;2.40;79.70;;;;;;5067975;28;20605;-64
2020/12/11 03:51:37;;;;;;;29.10;16.83;;;2.30;79.60;;;;;;5057500;28;20060;-64
2020/12/11 03:54:03;;;;;;;32.30;17.85;;;2.30;79.70;;;;;;5049620;28;20507;-64
2020/12/11 03:56:29;;;;;;;29.42;16.40;;;2.30;79.70;;;;;;5059916;28;20044;-64
2020/12/11 03:58:54;;;;;;;29.15;15.93;;;2.30;79.70;;;;;;5054798;28;20029;-64
2020/12/11 04:01:20;;;;;;;27.70;15.70;;;2.30;79.80;;;;;;5062064;28;20028;-64
2020/12/11 04:03:47;;;;;;;29.88;16.80;;;2.30;79.90;;;;;;5066277;28;20111;-63
2020/12/11 04:06:14;;;;;;;29.05;16.52;;;2.30;79.90;;;;;;5058796;28;20029;-64
2020/12/11 04:08:41;;;;;;;30.75;16.90;;;2.20;79.90;;;;;;5064029;28;20044;-63
2020/12/11 04:11:14;;;;;;;32.17;17.25;;;2.20;79.90;;;;;;5052363;28;20115;-64
2020/12/11 04:13:40;;;;;;;30.83;17.77;;;2.20;79.90;;;;;;5065743;28;20409;-64
2020/12/11 04:16:06;;;;;;;28.75;17.35;;;2.20;79.90;;;;;;5064394;28;20100;-64
2020/12/11 04:18:32;;;;;;;31.38;17.55;;;2.20;80.00;;;;;;5078901;28;20029;-64
2020/12/11 04:20:58;;;;;;;43.95;23.60;;;2.10;79.90;;;;;;5062087;28;20529;-64
2020/12/11 04:23:25;;;;;;;43.08;22.48;;;2.10;80.00;;;;;;5060757;28;20033;-63
2020/12/11 04:25:51;;;;;;;33.60;18.70;;;2.10;80.10;;;;;;5063296;28;20037;-63
2020/12/11 04:28:17;;;;;;;33.92;18.65;;;2.10;80.10;;;;;;5064428;28;20120;-64
2020/12/11 04:30:48;;;;;;;31.80;18.02;;;2.10;80.00;;;;;;5059872;28;20041;-63
2020/12/11 04:33:13;;;;;;;34.53;19.33;;;2.10;80.00;;;;;;5066671;28;20048;-64
2020/12/11 04:35:39;;;;;;;35.63;20.20;;;2.10;80.10;;;;;;5065341;28;20032;-63
2020/12/11 04:38:04;;;;;;;34.97;19.15;;;2.00;80.00;;;;;;5055651;28;20037;-63
2020/12/11 04:40:31;;;;;;;32.75;19.25;;;2.00;80.00;;;;;;5058767;28;20033;-64
2020/12/11 04:42:58;;;;;;;33.75;19.38;;;2.00;80.00;;;;;;5055210;28;20414;-63
2020/12/11 04:45:24;;;;;;;36.67;21.45;;;2.00;80.10;;;;;;5056099;28;20036;-63
2020/12/11 04:47:50;;;;;;;35.25;20.35;;;1.90;80.20;;;;;;5055422;28;20044;-64
2020/12/11 04:50:18;;;;;;;38.25;20.75;;;2.00;80.30;;;;;;5054504;28;20037;-64
2020/12/11 04:52:46;;;;;;;35.13;19.35;;;1.90;80.30;;;;;;5061244;28;20577;-64
2020/12/11 04:55:18;;;;;;;34.88;19.67;;;1.90;80.20;;;;;;5067544;28;20032;-64
2020/12/11 04:57:49;;;;;;;34.13;19.63;;;1.90;80.30;;;;;;5058374;28;20630;-64
2020/12/11 05:00:17;;;;;;;35.30;19.95;;;1.90;80.40;;;;;;5061900;28;20147;-64
2020/12/11 05:02:44;;;;;;;36.78;19.95;;;1.90;80.50;;;;;;5109408;22;20044;-69
2020/12/11 05:05:11;;;;;;;33.90;18.75;;;1.90;80.60;;;;;;5063513;28;20177;-70
2020/12/11 05:07:37;;;;;;;33.60;19.10;;;1.90;80.70;;;;;;5059011;28;20032;-70
2020/12/11 05:10:06;;;;;;;35.17;19.65;;;1.90;80.60;;;;;;5068706;28;20058;-69
2020/12/11 05:12:32;;;;;;;34.05;19.73;;;1.90;80.70;;;;;;5053104;28;20452;-70
2020/12/11 05:15:00;;;;;;;33.75;19.05;;;1.90;80.70;;;;;;5047646;28;20033;-69
2020/12/11 05:17:28;;;;;;;39.08;21.85;;;2.00;80.90;;;;;;5050928;28;20082;-70
2020/12/11 05:19:54;;;;;;;37.85;21.02;;;2.00;80.70;;;;;;5044849;28;20049;-70
2020/12/11 05:22:21;;;;;;;37.58;21.13;;;2.00;80.70;;;;;;5043388;28;20036;-69
2020/12/11 05:24:49;;;;;;;35.10;19.42;;;2.00;80.70;;;;;;5050751;28;20036;-69
2020/12/11 05:27:38;;;;;;;39.92;25.10;;;2.00;80.70;;;;;;5049982;28;20053;-70
2020/12/11 05:30:16;;;;;;;31.85;17.88;;;2.00;80.60;;;;;;5052120;28;20025;-69
2020/12/11 05:32:43;;;;;;;36.75;20.98;;;2.00;80.50;;;;;;5044960;28;20130;-71
2020/12/11 05:35:25;;;;;;;35.78;20.17;;;2.00;80.50;;;;;;5050962;28;20029;-71
2020/12/11 05:38:05;;;;;;;31.85;18.15;;;2.00;80.50;;;;;;5049333;28;20056;-69
2020/12/11 05:40:38;;;;;;;33.63;17.95;;;2.00;80.50;;;;;;5043198;28;20029;-71
2020/12/11 05:43:20;;;;;;;32.60;19.23;;;2.00;80.60;;;;;;5042489;28;20029;-69
2020/12/11 05:45:56;;;;;;;34.78;18.55;;;2.00;80.50;;;;;;5050257;28;20120;-71
2020/12/11 05:48:23;;;;;;;31.38;17.27;;;2.00;80.40;;;;;;5047952;28;20463;-71
2020/12/11 05:50:49;;;;;;;32.35;18.45;;;2.00;80.40;;;;;;5046197;28;20041;-69
2020/12/11 05:53:15;;;;;;;36.50;19.73;;;2.00;80.50;;;;;;5048436;28;20059;-69
2020/12/11 05:55:41;;;;;;;33.20;18.27;;;2.00;80.50;;;;;;5050918;28;20041;-71
2020/12/11 05:58:09;;;;;;;29.75;17.08;;;2.00;80.50;;;;;;5031311;28;20033;-69
2020/12/11 06:00:35;;;;;;;32.42;17.48;;;2.00;80.50;;;;;;5047638;28;20036;-69
2020/12/11 06:03:01;;;;;;;34.00;17.92;;;1.90;80.40;;;;;;5051705;28;20041;-69
2020/12/11 06:05:27;;;;;;;29.30;16.83;;;1.90;80.50;;;;;;5050180;28;20116;-69
2020/12/11 06:07:53;;;;;;;32.60;17.73;;;1.90;80.40;;;;;;5051921;28;20112;-69
2020/12/11 06:10:23;;;;;;;31.42;17.42;;;1.90;80.90;;;;;;5045843;28;20041;-69
2020/12/11 06:12:50;;;;;;;31.30;17.70;;;1.90;80.30;;;;;;5049074;28;20045;-68
2020/12/11 06:15:19;;;;;;;29.52;16.27;;;1.90;80.20;;;;;;5052983;28;20033;-68
2020/12/11 06:17:49;;;;;;;29.10;16.65;;;1.90;80.10;;;;;;5048226;28;20060;-68
2020/12/11 06:20:17;;;;;;;31.75;18.08;;;1.80;80.90;;;;;;5051959;28;20503;-71
2020/12/11 06:22:44;;;;;;;31.85;17.02;;;1.80;80.10;;;;;;5049740;28;20463;-71
2020/12/11 06:25:28;;;;;;;37.65;17.30;;;1.80;80.20;;;;;;5051053;28;20051;-71
2020/12/11 06:27:55;;;;;;;35.63;17.90;;;1.70;80.40;;;;;;5048364;28;20249;-71
2020/12/11 06:30:31;;;;;;;34.63;17.65;;;1.70;80.50;;;;;;5048627;28;20283;-71
2020/12/11 06:32:59;;;;;;;31.10;17.20;;;1.70;80.60;;;;;;5049181;28;20040;-70
2020/12/11 06:35:26;;;;;;;33.53;18.83;;;1.70;80.70;;;;;;5049647;28;20059;-70
2020/12/11 06:37:52;;;;;;;33.42;19.10;;;1.70;80.70;;;;;;5050285;28;20113;-70
2020/12/11 06:40:37;;;;;;;34.92;18.55;;;1.60;80.60;;;;;;5048613;28;20029;-69
2020/12/11 06:43:03;;;;;;;35.00;18.48;;;1.60;80.60;;;;;;5039019;28;20029;-67
2020/12/11 06:45:29;;;;;;;32.33;17.23;;;1.60;80.70;;;;;;5048100;28;20029;-68
2020/12/11 06:47:59;;;;;;;32.75;17.83;;;1.60;80.60;;;;;;5048444;28;20036;-68
2020/12/11 06:50:28;;;;;;;33.35;17.85;;;1.60;80.60;;;;;;5048306;28;20025;-67
2020/12/11 06:52:55;;;;;;;35.28;18.63;;;1.60;80.60;;;;;;5048090;28;20033;-67
2020/12/11 06:55:21;;;;;;;33.47;18.45;;;1.50;80.60;;;;;;5050784;28;20044;-68
2020/12/11 06:57:48;;;;;;;34.30;18.30;;;1.50;80.80;;;;;;5046448;28;20037;-68
2020/12/11 07:00:31;;;;;;;31.10;17.40;;;1.50;80.90;;;;;;5050919;28;20400;-68
2020/12/11 07:03:23;;;;;;;35.63;18.73;;;1.60;80.90;;;;;;5045056;28;20087;-68
2020/12/11 07:06:09;;;;;;;35.00;18.45;;;1.60;80.90;;;;;;5047466;28;20033;-67
2020/12/11 07:08:35;;;;;;;32.78;17.95;;;1.60;80.70;;;;;;5047499;28;20057;-70
2020/12/11 07:11:09;;;;;;;33.53;17.95;;;1.60;80.70;;;;;;5040278;28;20041;-68
2020/12/11 07:13:36;;;;;;;33.27;17.73;;;1.70;80.70;;;;;;5045905;28;20040;-68
2020/12/11 07:16:03;;;;;;;37.25;20.10;;;1.70;80.70;;;;;;5049622;28;20069;-68
2020/12/11 07:18:29;;;;;;;34.00;18.42;;;1.70;80.70;;;;;;5045573;28;20083;-66
2020/12/11 07:20:58;;;;;;;35.88;17.55;;;1.70;80.70;;;;;;5047254;28;20119;-68
2020/12/11 07:23:24;;;;;;;34.05;17.98;;;1.70;80.60;;;;;;5049433;28;20041;-68
2020/12/11 07:25:51;;;;;;;33.40;17.42;;;1.70;80.60;;;;;;5049100;28;20072;-68
2020/12/11 07:28:18;;;;;;;31.90;17.05;;;1.70;80.60;;;;;;5047024;28;20036;-68
2020/12/11 07:30:47;;;;;;;35.58;18.33;;;1.70;80.70;;;;;;5043617;28;20397;-68
2020/12/11 07:33:13;;;;;;;34.55;18.38;;;1.70;80.60;;;;;;5049483;28;20029;-68
2020/12/11 07:35:47;;;;;;;33.45;18.00;;;1.60;80.50;;;;;;5047774;28;20060;-68
2020/12/11 07:38:13;;;;;;;33.67;18.48;;;1.70;80.60;;;;;;5046372;28;20036;-70
2020/12/11 07:40:39;;;;;;;33.78;17.58;;;1.70;80.70;;;;;;5047591;28;20029;-69
2020/12/11 07:43:07;;;;;;;34.75;18.75;;;1.70;80.70;;;;;;5048642;28;20036;-70
2020/12/11 07:45:36;;;;;;;36.53;19.35;;;1.70;80.60;;;;;;5047816;28;20061;-67
2020/12/11 07:48:02;;;;;;;37.47;19.80;;;1.70;80.70;;;;;;5046255;28;20507;-68
2020/12/11 07:50:30;;;;;;;37.28;18.35;;;1.70;80.60;;;;;;5046642;28;20041;-67
2020/12/11 07:52:57;;;;;;;34.83;18.60;;;1.70;80.60;;;;;;5047256;28;20109;-68
2020/12/11 07:55:27;;;;;;;37.55;20.77;;;1.80;80.70;;;;;;5045602;28;20183;-68
2020/12/11 07:57:57;;;;;;;35.80;19.38;;;1.80;80.60;;;;;;5046952;28;20040;-68
2020/12/11 08:00:23;;;;;;;33.40;18.45;;;1.80;80.60;;;;;;5048414;28;20025;-68
2020/12/11 08:03:08;;;;;;;35.95;18.65;;;1.80;80.70;;;;;;5041036;28;20041;-67
2020/12/11 08:05:38;;;;;;;36.55;18.63;;;1.90;80.70;;;;;;5033700;28;20037;-69
2020/12/11 08:08:06;;;;;;;31.98;18.23;;;1.90;80.70;;;;;;5033615;28;20033;-68
2020/12/11 08:10:43;;;;;;;35.00;18.23;;;1.90;80.60;;;;;;5043559;28;20033;-68
2020/12/11 08:13:16;;;;;;;37.30;19.00;;;1.90;80.40;;;;;;5045638;28;20120;-70
2020/12/11 08:15:45;;;;;;;32.88;17.67;;;1.90;80.40;;;;;;5047978;28;20411;-69
2020/12/11 08:18:20;;;;;;;33.53;17.88;;;1.90;80.40;;;;;;5046206;28;20083;-70
2020/12/11 08:21:00;;;;;;;31.02;16.45;;;1.90;80.40;;;;;;5045820;28;20068;-69
2020/12/11 08:23:51;;;;;;;32.03;16.75;;;1.90;80.30;;;;;;5044041;28;20033;-67
2020/12/11 08:26:19;;;;;;;31.65;17.42;;;1.90;80.20;;;;;;5047560;28;20511;-67
2020/12/11 08:28:47;;;;;;;33.88;16.80;;;1.90;80.20;;;;;;5059691;28;20492;-67
2020/12/11 08:31:25;;;;;;;31.95;17.05;;;1.90;80.10;;;;;;5049058;28;20036;-67
2020/12/11 08:34:05;;;;;;;32.90;16.75;;;1.90;80.00;;;;;;5052176;28;20029;-67
2020/12/11 08:36:32;;;;;;;33.97;17.88;;;1.90;80.10;;;;;;5052635;28;20079;-68
2020/12/11 08:39:22;;;;;;;33.10;17.77;;;1.90;80.10;;;;;;5047577;28;20032;-67
2020/12/11 08:45:20;;;;;;;34.25;18.08;;;1.90;80.30;;;;;;5049646;28;20049;-67
2020/12/11 08:50:38;;;;;;;35.25;18.48;;;1.90;80.20;;;;;;5051693;28;20127;-67
2020/12/11 08:53:09;;;;;;;34.95;17.98;;;1.90;80.30;;;;;;5045219;28;20039;-67
2020/12/11 08:55:36;;;;;;;36.15;19.88;;;1.90;80.40;;;;;;5051571;28;20067;-67
2020/12/11 08:58:01;;;;;;;38.88;18.98;;;1.90;80.50;;;;;;5048366;28;20483;-68
2020/12/11 09:00:27;;;;;;;35.05;19.02;;;1.90;80.70;;;;;;5050163;28;20063;-67
2020/12/11 09:02:53;;;;;;;34.83;18.10;;;2.00;80.80;;;;;;5042923;28;20033;-67
2020/12/11 09:05:21;;;;;;;37.95;20.45;;;2.00;80.90;;;;;;5051628;28;20116;-67
2020/12/11 09:07:47;;;;;;;37.53;19.33;;;2.00;80.70;;;;;;5046114;28;20381;-67
2020/12/11 09:10:12;;;;;;;37.80;18.80;;;2.00;80.50;;;;;;5048912;28;20040;-69
2020/12/11 09:12:38;;;;;;;36.58;18.92;;;2.10;80.50;;;;;;5047460;28;20037;-70
2020/12/11 09:15:08;;;;;;;36.95;19.30;;;2.10;80.40;;;;;;5052405;28;20051;-70
2020/12/11 09:17:34;;;;;;;36.80;18.65;;;2.10;80.40;;;;;;5049947;28;20590;-68
2020/12/11 09:20:00;;;;;;;42.28;20.77;;;2.00;80.40;;;;;;5050434;28;20032;-67
2020/12/11 09:22:25;;;;;;;36.10;18.83;;;2.10;80.60;;;;;;5049418;28;20065;-67
2020/12/11 09:24:51;;;;;;;39.70;20.25;;;2.10;80.60;;;;;;5052063;28;20067;-68
2020/12/11 09:27:17;;;;;;;34.35;17.67;;;2.10;80.60;;;;;;5048318;28;20125;-68
2020/12/11 09:29:45;;;;;;;34.30;18.35;;;2.20;80.60;;;;;;5033629;28;20117;-67
2020/12/11 09:32:20;;;;;;;38.03;18.83;;;2.20;80.50;;;;;;5048796;28;20052;-67
2020/12/11 09:34:46;;;;;;;35.13;18.42;;;2.30;80.30;;;;;;5048489;28;20044;-68
2020/12/11 09:37:11;;;;;;;35.92;18.45;;;2.30;80.20;;;;;;5050827;28;20037;-68
2020/12/11 09:39:37;;;;;;;36.85;19.10;;;2.40;80.20;;;;;;5047018;28;20407;-68
2020/12/11 09:52:26;;;;;;;;;;;;;;;;;;;;;
2020/12/11 09:54:40;;;;;;;34.08;17.90;;;2.30;80.20;;;;;;5049494;28;20072;-70
2020/12/11 09:57:06;;;;;;;32.25;17.33;;;2.30;80.20;;;;;;5049512;28;20057;-67
2020/12/11 09:59:43;;;;;;;34.05;17.23;;;2.40;80.10;;;;;;5049031;28;20123;-67
2020/12/11 10:04:53;;;;;;;31.13;15.95;;;2.30;79.70;;;;;;5050932;28;20502;-69
2020/12/11 10:07:19;;;;;;;26.63;14.82;;;2.30;79.50;;;;;;5047551;28;20029;-70
2020/12/11 10:09:44;;;;;;;28.92;15.75;;;2.30;79.30;;;;;;5048785;28;20556;-70
2020/12/11 10:12:11;;;;;;;27.42;15.25;;;2.30;79.20;;;;;;5046846;28;20485;-69
2020/12/11 10:14:46;;;;;;;32.33;16.63;;;2.30;79.10;;;;;;5045472;28;20057;-68
2020/12/11 10:17:14;;;;;;;32.33;16.67;;;2.20;78.90;;;;;;5045343;28;20495;-68
2020/12/11 10:19:39;;;;;;;32.63;17.20;;;2.20;78.70;;;;;;5048441;28;20033;-67
2020/12/11 10:22:05;;;;;;;32.60;16.83;;;2.20;78.80;;;;;;5048892;28;20553;-67
2020/12/11 10:24:31;;;;;;;37.80;18.13;;;2.10;79.20;;;;;;5050893;28;20458;-68
2020/12/11 10:26:57;;;;;;;32.10;16.45;;;2.10;79.20;;;;;;5046710;28;20025;-67
2020/12/11 10:29:22;;;;;;;33.35;17.27;;;2.10;79.30;;;;;;5049538;28;20056;-68
2020/12/11 10:31:48;;;;;;;31.50;16.88;;;2.10;79.50;;;;;;5047009;28;20702;-68
2020/12/11 10:34:16;;;;;;;31.67;16.23;;;2.10;79.50;;;;;;5048643;28;20031;-68
2020/12/11 10:36:42;;;;;;;31.52;16.00;;;2.00;79.20;;;;;;5046421;28;20445;-68
2020/12/11 10:39:09;;;;;;;34.80;16.90;;;2.00;79.50;;;;;;5048759;28;20617;-68
2020/12/11 10:41:36;;;;;;;29.35;16.30;;;2.00;79.70;;;;;;5046069;28;20075;-68
2020/12/11 10:44:02;;;;;;;30.88;15.73;;;2.00;79.60;;;;;;5048405;28;20033;-68
2020/12/11 10:46:28;;;;;;;30.63;15.70;;;2.00;79.70;;;;;;5047837;28;20029;-68
2020/12/11 10:48:54;;;;;;;29.60;15.90;;;2.10;80.20;;;;;;5048866;28;20036;-67
2020/12/11 10:51:19;;;;;;;31.58;16.35;;;2.10;80.50;;;;;;5049289;28;20025;-68
2020/12/11 10:53:46;;;;;;;34.08;16.70;;;2.10;80.50;;;;;;5046836;28;20033;-67
2020/12/11 10:56:12;;;;;;;31.80;16.60;;;2.30;80.40;;;;;;5043671;28;20825;-68
2020/12/11 10:58:39;;;;;;;34.85;17.67;;;2.30;80.90;;;;;;5047816;28;20033;-67
2020/12/11 11:01:05;;;;;;;30.67;16.98;;;2.30;79.80;;;;;;5046517;28;20510;-68
2020/12/11 11:03:35;;;;;;;31.63;17.70;;;2.30;79.80;;;;;;5093677;22;20044;-65
2020/12/11 11:06:10;;;;;;;36.20;17.55;;;2.40;79.30;;;;;;5062461;28;20030;-64
2020/12/11 11:09:08;;;;;;;;;;;2.30;79.30;;;;;;5063809;28;20040;-65
2020/12/11 11:11:28;;;;;;;32.45;16.20;;;2.40;79.20;;;;;;5059896;28;19913;-65
2020/12/11 11:17:04;;;;;;;32.95;17.83;;;2.30;79.30;;;;;;5062473;28;20028;-65
2020/12/11 11:24:59;;;;;;;34.25;17.23;;;2.40;79.80;;;;;;5068541;28;20029;-66
2020/12/11 11:29:53;;;;;;;27.17;15.45;;;2.40;79.70;;;;;;5060401;28;20103;-65
2020/12/11 11:32:19;;;;;;;27.75;15.30;;;2.50;80.10;;;;;;5063029;28;20044;-65
2020/12/11 11:34:45;;;;;;;33.72;17.95;;;2.50;81.10;;;;;;5064957;28;20045;-65
2020/12/11 11:37:10;;;;;;;31.58;16.67;;;2.60;80.40;;;;;;5054684;28;20120;-66
2020/12/11 11:39:36;;;;;;;32.08;16.48;;;2.70;80.40;;;;;;5058702;28;20040;-65
2020/12/11 11:42:02;;;;;;;32.67;16.98;;;2.70;80.00;;;;;;5065458;28;20032;-65
2020/12/11 11:44:52;;;;;;;33.50;17.33;;;2.80;79.30;;;;;;5056388;28;20026;-66
2020/12/11 11:47:17;;;;;;;32.10;16.42;;;2.80;79.10;;;;;;5067459;28;20029;-65
2020/12/11 11:54:59;;;;;;;26.30;14.05;;;2.80;79.50;;;;;;5057595;28;20116;-66
2020/12/11 11:57:27;;;;;;;26.77;14.32;;;2.80;79.40;;;;;;5061784;28;20116;-66
2020/12/11 11:59:53;;;;;;;32.50;16.42;;;2.80;79.20;;;;;;5058062;28;20029;-65
2020/12/11 12:02:19;;;;;;;29.75;15.65;;;2.90;79.20;;;;;;5061438;28;20055;-61
2020/12/11 12:04:44;;;;;;;28.48;14.27;;;2.80;79.20;;;;;;5058398;28;20037;-65
2020/12/11 12:07:10;;;;;;;34.40;16.63;;;2.80;79.00;;;;;;5065000;28;20466;-62
2020/12/11 12:09:36;;;;;;;31.00;15.30;;;2.80;79.00;;;;;;5064628;28;20040;-65
2020/12/11 12:12:02;;;;;;;28.83;15.27;;;2.80;79.00;;;;;;5060831;28;20028;-66
2020/12/11 12:14:27;;;;;;;29.02;15.50;;;2.80;79.00;;;;;;5053721;28;20057;-65
2020/12/11 12:16:58;;;;;;;33.17;15.60;;;2.80;79.00;;;;;;5058707;28;20119;-65
2020/12/11 12:19:45;;;;;;;29.05;15.30;;;2.80;79.00;;;;;;5058093;28;20056;-65
2020/12/11 12:29:47;;;;;;;34.72;16.20;;;2.90;79.30;;;;;;5060084;28;20032;-65
2020/12/11 12:32:16;;;;;;;32.88;15.88;;;2.90;79.20;;;;;;5061544;28;20407;-65
2020/12/11 12:45:24;;;;;;;33.25;15.57;;;3.00;79.10;;;;;;5059275;28;20024;-65
2020/12/11 12:47:49;;;;;;;32.33;16.70;;;3.10;79.20;;;;;;5063979;28;20106;-65
2020/12/11 12:50:15;;;;;;;32.20;16.08;;;3.10;79.00;;;;;;5058514;28;20505;-65
2020/12/11 12:52:42;;;;;;;36.88;17.13;;;3.20;78.90;;;;;;5058939;28;20044;-65
2020/12/11 12:55:08;;;;;;;34.28;16.60;;;3.20;78.90;;;;;;5063905;28;20026;-65
2020/12/11 12:57:44;;;;;;;30.63;15.50;;;3.20;78.80;;;;;;5062076;28;20085;-65
2020/12/11 13:05:29;;;;;;;32.38;16.23;;;3.30;78.60;;;;;;5063084;28;20564;-65
2020/12/11 13:07:55;;;;;;;30.33;15.65;;;3.30;78.50;;;;;;5054702;28;20127;-66
2020/12/11 13:10:21;;;;;;;30.20;15.88;;;3.30;78.50;;;;;;5058998;28;20082;-65
2020/12/11 13:12:47;;;;;;;36.97;18.98;;;3.30;78.50;;;;;;5054651;28;20033;-65
2020/12/11 13:15:13;;;;;;;28.23;16.02;;;3.30;78.50;;;;;;5057050;28;20120;-65
2020/12/11 13:17:39;;;;;;;32.58;14.50;;;3.20;78.50;;;;;;5062714;28;20028;-65
2020/12/11 13:20:08;;;;;;;27.25;14.18;;;3.30;78.50;;;;;;5068873;28;20021;-65
2020/12/11 13:22:49;;;;;;;26.75;13.82;;;3.30;78.40;;;;;;5064005;28;20037;-65
2020/12/11 13:27:50;;;;;;;25.27;13.57;;;3.30;78.00;;;;;;5065329;28;20033;-65
2020/12/11 13:30:18;;;;;;;29.15;14.75;;;3.20;77.60;;;;;;5066409;28;20077;-65
2020/12/11 13:32:44;;;;;;;24.25;13.63;;;3.20;77.80;;;;;;5064459;28;20036;-65
2020/12/11 13:35:10;;;;;;;26.27;13.43;;;3.20;77.80;;;;;;5069641;28;20402;-65
2020/12/11 13:37:35;;;;;;;24.25;13.18;;;3.10;77.80;;;;;;5062900;28;20029;-65
2020/12/11 13:40:02;;;;;;;24.50;13.65;;;3.10;77.60;;;;;;5064635;28;20071;-65
2020/12/11 13:42:29;;;;;;;24.23;13.80;;;3.10;77.70;;;;;;5083679;28;20111;-65
2020/12/11 13:44:55;;;;;;;26.80;14.15;;;3.00;77.60;;;;;;5058064;28;20250;-65